createdAt,value
2019-01-23T00:00:36.595Z,24.47
2019-01-23T00:03:12.404Z,24.75
2019-01-23T00:05:46.990Z,24.67
2019-01-23T00:08:24.900Z,24.72
2019-01-23T00:10:57.816Z,25.35
2019-01-23T00:13:32.737Z,26.00
2019-01-23T00:16:04.581Z,24.55
2019-01-23T00:18:36.398Z,27.10
2019-01-23T00:21:09.999Z,24.12
2019-01-23T00:23:41.838Z,26.57
2019-01-23T00:26:17.316Z,25.20
2019-01-23T00:28:50.639Z,26.77
2019-01-23T00:31:22.488Z,24.27
2019-01-23T00:33:54.708Z,25.80
2019-01-23T00:36:26.540Z,25.45
2019-01-23T00:38:59.841Z,26.23
2019-01-23T00:41:35.930Z,26.30
2019-01-23T00:44:07.760Z,24.15
2019-01-23T00:46:39.607Z,24.80
2019-01-23T00:49:14.524Z,26.02
2019-01-23T00:51:46.374Z,26.42
2019-01-23T00:54:18.299Z,26.17
2019-01-23T00:56:55.844Z,27.15
2019-01-23T00:59:27.689Z,26.95
2019-01-23T01:02:01.151Z,25.88
2019-01-23T01:04:35.581Z,27.62
2019-01-23T01:07:07.417Z,27.85
2019-01-23T01:09:39.239Z,26.45
2019-01-23T01:12:13.111Z,25.72
2019-01-23T01:14:44.948Z,26.82
2019-01-23T01:17:19.850Z,27.52
2019-01-23T01:19:54.137Z,26.27
2019-01-23T01:22:27.039Z,27.25
2019-01-23T01:24:58.892Z,25.23
2019-01-23T01:27:32.351Z,25.88
2019-01-23T01:30:07.070Z,25.65
2019-01-23T01:32:38.885Z,24.85
2019-01-23T01:35:13.825Z,26.95
2019-01-23T01:37:47.099Z,27.05
2019-01-23T01:40:20.050Z,26.70
2019-01-23T01:42:55.821Z,25.62
2019-01-23T01:45:27.654Z,28.60
2019-01-23T01:47:59.492Z,26.62
2019-01-23T01:50:31.333Z,25.57
2019-01-23T01:53:03.140Z,26.00
2019-01-23T01:55:38.271Z,27.07
2019-01-23T01:58:12.288Z,27.15
2019-01-23T02:00:44.140Z,27.05
2019-01-23T02:03:19.983Z,27.02
2019-01-23T02:05:52.935Z,24.80
2019-01-23T02:08:24.750Z,26.00
2019-01-23T02:10:58.952Z,26.95
2019-01-23T02:13:30.778Z,28.07
2019-01-23T02:16:05.279Z,26.55
2019-01-23T02:18:38.508Z,27.87
2019-01-23T02:21:10.351Z,26.57
2019-01-23T02:23:42.177Z,26.37
2019-01-23T02:26:14.029Z,26.97
2019-01-23T02:28:45.905Z,26.20
2019-01-23T02:31:18.872Z,26.93
2019-01-23T02:33:55.149Z,25.08
2019-01-23T02:36:28.252Z,27.10
2019-01-23T02:39:03.171Z,28.47
2019-01-23T02:41:34.979Z,25.27
2019-01-23T02:44:07.061Z,25.75
2019-01-23T02:46:41.193Z,25.25
2019-01-23T02:49:15.553Z,24.25
2019-01-23T02:51:50.034Z,23.52
2019-01-23T02:54:21.893Z,24.55
2019-01-23T02:56:54.798Z,23.65
2019-01-23T02:59:26.656Z,25.70
2019-01-23T03:01:58.480Z,22.55
2019-01-23T03:04:32.959Z,25.72
2019-01-23T03:07:04.787Z,24.05
2019-01-23T03:09:36.793Z,24.50
2019-01-23T03:12:08.620Z,24.80
2019-01-23T03:14:43.508Z,25.10
2019-01-23T03:17:19.609Z,25.65
2019-01-23T03:19:51.475Z,24.82
2019-01-23T03:22:23.387Z,26.82
2019-01-23T03:24:55.233Z,26.25
2019-01-23T03:27:27.045Z,26.02
2019-01-23T03:29:58.894Z,26.68
2019-01-23T03:32:31.026Z,25.57
2019-01-23T03:35:02.862Z,27.30
2019-01-23T03:37:34.710Z,28.05
2019-01-23T03:40:10.874Z,27.55
2019-01-23T03:42:42.682Z,26.93
2019-01-23T03:45:15.882Z,27.58
2019-01-23T03:47:47.826Z,25.60
2019-01-23T03:50:22.127Z,26.60
2019-01-23T03:52:53.986Z,27.20
2019-01-23T03:55:25.837Z,27.37
2019-01-23T03:57:57.697Z,26.55
2019-01-23T04:00:29.490Z,28.85
2019-01-23T04:03:01.319Z,28.20
2019-01-23T04:05:33.154Z,27.48
2019-01-23T04:08:04.978Z,26.40
2019-01-23T04:10:36.814Z,27.48
2019-01-23T04:13:08.631Z,27.50
2019-01-23T04:15:40.537Z,27.42
2019-01-23T04:18:12.393Z,26.65
2019-01-23T04:20:44.214Z,26.12
2019-01-23T04:23:16.055Z,27.35
2019-01-23T04:25:49.410Z,28.02
2019-01-23T04:28:21.240Z,28.45
2019-01-23T04:30:53.075Z,29.05
2019-01-23T04:33:24.896Z,26.73
2019-01-23T04:35:56.731Z,28.65
2019-01-23T04:38:28.540Z,24.40
2019-01-23T04:41:00.407Z,28.07
2019-01-23T04:43:35.019Z,30.23
2019-01-23T04:46:06.870Z,26.65
2019-01-23T04:48:40.994Z,27.02
2019-01-23T04:51:31.700Z,28.70
2019-01-23T04:54:03.891Z,26.23
2019-01-23T04:56:35.857Z,26.50
2019-01-23T04:59:07.684Z,27.22
2019-01-23T05:01:40.604Z,25.60
2019-01-23T05:04:12.621Z,25.97
2019-01-23T05:06:44.482Z,26.02
2019-01-23T05:09:19.152Z,25.45
2019-01-23T05:11:50.998Z,25.15
2019-01-23T05:14:22.818Z,24.25
2019-01-23T05:16:55.813Z,25.35
2019-01-23T05:19:27.637Z,25.05
2019-01-23T05:21:59.500Z,22.70
2019-01-23T05:24:31.433Z,25.15
2019-01-23T05:27:03.433Z,23.20
2019-01-23T05:29:35.256Z,23.62
2019-01-23T05:32:07.105Z,25.40
2019-01-23T05:34:38.934Z,25.48
2019-01-23T05:37:10.806Z,24.30
2019-01-23T05:39:45.022Z,23.62
2019-01-23T05:42:16.906Z,24.50
2019-01-23T05:44:48.731Z,24.70
2019-01-23T05:47:20.585Z,23.40
2019-01-23T05:49:52.394Z,25.30
2019-01-23T05:52:24.233Z,24.30
2019-01-23T05:54:56.073Z,25.65
2019-01-23T05:57:27.889Z,24.67
2019-01-23T06:00:02.525Z,24.98
2019-01-23T06:02:34.794Z,24.80
2019-01-23T06:05:09.235Z,26.60
2019-01-23T06:07:42.176Z,25.15
2019-01-23T06:10:14.278Z,25.57
2019-01-23T06:12:48.700Z,25.85
2019-01-23T06:15:19.596Z,24.50
2019-01-23T06:17:52.994Z,25.23
2019-01-23T06:20:24.851Z,26.52
2019-01-23T06:22:58.900Z,24.37
2019-01-23T06:25:30.779Z,25.00
2019-01-23T06:28:02.608Z,25.52
2019-01-23T06:30:35.911Z,29.77
2019-01-23T06:33:07.752Z,24.43
2019-01-23T06:35:41.412Z,24.85
2019-01-23T06:38:13.220Z,25.02
2019-01-23T06:40:45.093Z,26.52
2019-01-23T06:43:16.940Z,24.52
2019-01-23T06:45:48.759Z,25.97
2019-01-23T06:48:20.860Z,26.20
2019-01-23T06:50:52.690Z,22.42
2019-01-23T06:53:24.779Z,23.55
2019-01-23T06:55:56.605Z,25.35
2019-01-23T06:58:28.443Z,24.27
2019-01-23T07:01:00.290Z,24.52
2019-01-23T07:03:32.171Z,24.90
2019-01-23T07:06:03.998Z,23.75
2019-01-23T07:08:35.991Z,25.77
2019-01-23T07:11:07.834Z,22.87
2019-01-23T07:13:39.686Z,26.73
2019-01-23T07:16:11.528Z,25.60
2019-01-23T07:18:43.378Z,26.62
2019-01-23T07:21:16.491Z,23.30
2019-01-23T07:23:50.412Z,25.05
2019-01-23T07:26:22.252Z,25.17
2019-01-23T07:28:54.220Z,26.33
2019-01-23T07:31:26.119Z,22.93
2019-01-23T07:33:57.977Z,22.55
2019-01-23T07:36:29.808Z,23.73
2019-01-23T07:39:01.655Z,24.43
2019-01-23T07:41:34.561Z,23.85
2019-01-23T07:44:06.392Z,24.65
2019-01-23T07:46:38.261Z,25.20
2019-01-23T07:49:10.099Z,23.92
2019-01-23T07:51:41.918Z,24.90
2019-01-23T07:54:13.794Z,24.65
2019-01-23T07:56:45.648Z,23.57
2019-01-23T07:59:17.490Z,24.90
2019-01-23T08:01:49.335Z,24.55
2019-01-23T08:04:21.317Z,24.45
2019-01-23T08:06:53.167Z,24.25
2019-01-23T08:09:25.004Z,25.25
2019-01-23T08:11:56.836Z,23.52
2019-01-23T08:14:28.671Z,25.02
2019-01-23T08:17:00.533Z,25.70
2019-01-23T08:19:33.356Z,25.30
2019-01-23T08:22:05.194Z,25.32
2019-01-23T08:24:37.054Z,24.43
2019-01-23T08:27:08.905Z,27.65
2019-01-23T08:29:40.750Z,24.72
2019-01-23T08:32:13.562Z,26.65
2019-01-23T08:34:45.386Z,24.27
2019-01-23T08:37:17.322Z,25.70
2019-01-23T08:39:51.749Z,25.50
2019-01-23T08:42:23.594Z,25.52
2019-01-23T08:44:55.451Z,24.85
2019-01-23T08:47:27.343Z,26.60
2019-01-23T08:49:59.154Z,26.23
2019-01-23T08:52:31.004Z,24.77
2019-01-23T08:55:07.829Z,24.75
2019-01-23T08:57:39.712Z,25.60
2019-01-23T09:00:30.638Z,24.98
2019-01-23T09:03:02.602Z,26.00
2019-01-23T09:05:34.456Z,24.85
2019-01-23T09:08:07.608Z,25.65
2019-01-23T09:10:39.440Z,23.67
2019-01-23T09:13:11.272Z,24.10
2019-01-23T09:15:43.103Z,25.65
2019-01-23T09:18:15.199Z,24.43
2019-01-23T09:20:47.078Z,24.30
2019-01-23T09:23:20.730Z,24.10
2019-01-23T09:25:53.686Z,23.80
2019-01-23T09:28:25.552Z,23.35
2019-01-23T09:32:00.479Z,23.65
2019-01-23T09:35:12.343Z,25.55
2019-01-23T09:38:30.698Z,23.57
2019-01-23T09:41:35.189Z,25.48
2019-01-23T09:45:11.069Z,24.43
2019-01-23T09:48:00.772Z,25.68
2019-01-23T09:51:40.203Z,23.80
2019-01-23T09:54:15.981Z,25.70
2019-01-23T09:56:50.093Z,24.23
2019-01-23T09:59:21.939Z,24.87
2019-01-23T10:01:53.942Z,25.27
2019-01-23T10:04:25.753Z,24.37
2019-01-23T10:06:57.613Z,26.17
2019-01-23T10:09:29.502Z,25.55
2019-01-23T10:12:01.328Z,24.40
2019-01-23T10:14:34.246Z,23.22
2019-01-23T10:17:06.121Z,23.95
2019-01-23T10:19:37.957Z,24.67
2019-01-23T10:22:11.700Z,25.27
2019-01-23T10:24:44.340Z,24.43
2019-01-23T10:27:16.181Z,23.95
2019-01-23T10:29:47.995Z,24.98
2019-01-23T10:32:19.979Z,23.40
2019-01-23T10:34:54.614Z,25.32
2019-01-23T10:37:26.446Z,24.72
2019-01-23T10:39:58.359Z,24.07
2019-01-23T10:42:30.209Z,25.40
2019-01-23T10:45:02.067Z,24.50
2019-01-23T10:47:33.940Z,25.57
2019-01-23T10:50:07.306Z,25.65
2019-01-23T10:52:39.112Z,23.15
2019-01-23T10:55:11.618Z,22.85
2019-01-23T10:57:43.555Z,25.12
2019-01-23T11:00:18.293Z,23.57
2019-01-23T11:02:50.107Z,24.82
2019-01-23T11:05:24.256Z,24.25
2019-01-23T11:07:56.122Z,24.77
2019-01-23T11:10:27.979Z,24.55
2019-01-23T11:12:59.823Z,26.87
2019-01-23T11:15:31.686Z,27.10
2019-01-23T11:18:03.501Z,24.75
2019-01-23T11:20:35.340Z,24.12
2019-01-23T11:23:07.351Z,25.48
2019-01-23T11:25:39.312Z,27.10
2019-01-23T11:28:11.150Z,25.45
2019-01-23T11:30:43.007Z,26.05
2019-01-23T11:33:14.817Z,25.15
2019-01-23T11:35:46.668Z,25.15
2019-01-23T11:38:18.506Z,26.02
2019-01-23T11:40:50.349Z,24.35
2019-01-23T11:43:22.182Z,24.18
2019-01-23T11:45:54.053Z,27.15
2019-01-23T11:48:25.885Z,25.65
2019-01-23T11:50:57.710Z,26.55
2019-01-23T11:53:29.566Z,26.48
2019-01-23T11:56:01.384Z,25.75
2019-01-23T11:58:33.254Z,29.18
2019-01-23T12:01:05.483Z,26.30
2019-01-23T12:03:37.322Z,24.20
2019-01-23T12:06:09.143Z,25.40
2019-01-23T12:08:40.994Z,28.32
2019-01-23T12:11:13.003Z,27.25
2019-01-23T12:13:44.873Z,25.27
2019-01-23T12:16:16.704Z,26.02
2019-01-23T12:18:48.522Z,25.35
2019-01-23T12:21:20.363Z,25.37
2019-01-23T12:23:58.239Z,26.45
2019-01-23T12:26:25.741Z,26.48
2019-01-23T12:28:59.466Z,26.00
2019-01-23T12:31:35.094Z,24.70
2019-01-23T12:34:06.648Z,25.68
2019-01-23T12:36:38.506Z,24.63
2019-01-23T12:39:10.648Z,25.95
2019-01-23T12:41:42.670Z,28.73
2019-01-23T12:44:14.600Z,23.30
2019-01-23T12:46:47.830Z,23.47
2019-01-23T12:49:19.754Z,23.65
2019-01-23T12:51:51.670Z,25.70
2019-01-23T12:54:23.506Z,22.98
2019-01-23T12:56:55.447Z,23.70
2019-01-23T12:59:27.271Z,25.35
2019-01-23T13:01:59.322Z,25.05
2019-01-23T13:04:31.175Z,24.65
2019-01-23T13:07:03.009Z,23.70
2019-01-23T13:09:37.585Z,24.40
2019-01-23T13:12:09.486Z,24.50
2019-01-23T13:14:41.371Z,24.27
2019-01-23T13:17:16.426Z,24.20
2019-01-23T13:19:48.336Z,24.05
2019-01-23T13:22:21.850Z,24.27
2019-01-23T13:24:53.834Z,26.17
2019-01-23T13:27:25.675Z,24.02
2019-01-23T13:29:57.494Z,24.37
2019-01-23T13:32:29.504Z,24.57
2019-01-23T13:35:01.340Z,27.00
2019-01-23T13:37:33.273Z,26.48
2019-01-23T13:40:07.791Z,26.25
2019-01-23T13:42:43.204Z,27.82
2019-01-23T13:45:15.325Z,30.25
2019-01-23T13:47:48.275Z,28.20
2019-01-23T13:50:20.149Z,26.73
2019-01-23T13:52:51.999Z,26.80
2019-01-23T13:55:25.635Z,26.50
2019-01-23T13:57:57.484Z,31.20
2019-01-23T14:00:35.776Z,24.25
2019-01-23T14:03:09.037Z,25.50
2019-01-23T14:05:42.011Z,26.80
2019-01-23T14:08:14.103Z,28.25
2019-01-23T14:10:45.925Z,26.68
2019-01-23T14:13:17.759Z,29.12
2019-01-23T14:15:56.327Z,27.85
2019-01-23T14:18:36.192Z,27.17
2019-01-23T14:21:11.918Z,26.82
2019-01-23T14:23:46.778Z,26.42
2019-01-23T14:26:22.125Z,28.40
2019-01-23T14:28:53.984Z,28.57
2019-01-23T14:31:33.350Z,27.87
2019-01-23T14:34:05.210Z,29.10
2019-01-23T14:36:39.787Z,24.80
2019-01-23T14:39:11.651Z,25.62
2019-01-23T14:41:43.531Z,27.00
2019-01-23T14:44:15.403Z,26.82
2019-01-23T14:46:53.198Z,28.32
2019-01-23T14:49:27.099Z,25.32
2019-01-23T14:51:59.723Z,26.97
2019-01-23T14:54:31.574Z,24.35
2019-01-23T14:57:05.620Z,25.95
2019-01-23T14:59:37.492Z,24.90
2019-01-23T15:02:12.140Z,25.52
2019-01-23T15:04:44.019Z,28.15
2019-01-23T15:07:15.869Z,26.80
2019-01-23T15:09:50.236Z,27.70
2019-01-23T15:12:22.090Z,29.98
2019-01-23T15:14:53.959Z,27.77
2019-01-23T15:17:25.807Z,27.27
2019-01-23T15:19:57.664Z,28.73
2019-01-23T15:22:29.516Z,29.98
2019-01-23T15:25:01.365Z,30.95
2019-01-23T15:27:34.390Z,30.23
2019-01-23T15:30:10.487Z,32.20
2019-01-23T15:32:43.697Z,29.63
2019-01-23T15:35:20.702Z,29.80
2019-01-23T15:37:52.664Z,31.30
2019-01-23T15:40:27.994Z,30.75
2019-01-23T15:42:59.906Z,31.70
2019-01-23T15:45:31.795Z,30.02
2019-01-23T15:48:03.670Z,29.25
2019-01-23T15:50:35.530Z,31.27
2019-01-23T15:53:10.203Z,30.80
2019-01-23T15:55:42.098Z,31.12
2019-01-23T15:58:15.454Z,31.33
2019-01-23T16:00:51.977Z,29.45
2019-01-23T16:03:25.411Z,29.50
2019-01-23T16:05:57.256Z,31.93
2019-01-23T16:08:30.592Z,30.72
2019-01-23T16:11:02.530Z,30.43
2019-01-23T16:13:42.438Z,29.77
2019-01-23T16:16:17.778Z,29.27
2019-01-23T16:18:49.929Z,31.00
2019-01-23T16:21:21.754Z,30.08
2019-01-23T16:23:53.625Z,31.75
2019-01-23T16:26:28.030Z,27.52
2019-01-23T16:29:03.923Z,30.37
2019-01-23T16:31:35.770Z,30.37
2019-01-23T16:34:07.715Z,30.23
2019-01-23T16:36:41.184Z,31.55
2019-01-23T16:39:17.599Z,30.48
2019-01-23T16:41:53.146Z,29.15
2019-01-23T16:44:28.998Z,27.67
2019-01-23T16:47:06.433Z,29.95
2019-01-23T16:49:41.622Z,30.10
2019-01-23T16:52:16.579Z,26.77
2019-01-23T16:54:54.067Z,29.95
2019-01-23T16:57:30.728Z,27.70
2019-01-23T17:00:07.607Z,29.20
2019-01-23T17:02:40.684Z,27.95
2019-01-23T17:05:18.635Z,28.85
2019-01-23T17:07:53.326Z,28.38
2019-01-23T17:10:26.817Z,27.02
2019-01-23T17:12:58.681Z,27.85
2019-01-23T17:15:30.536Z,27.85
2019-01-23T17:18:02.380Z,28.90
2019-01-23T17:20:41.154Z,27.25
2019-01-23T17:23:14.100Z,27.20
2019-01-23T17:25:46.026Z,26.77
2019-01-23T17:28:19.492Z,25.02
2019-01-23T17:30:51.369Z,28.30
2019-01-23T17:33:24.355Z,29.27
2019-01-23T17:35:56.253Z,26.70
2019-01-23T17:38:29.298Z,25.88
2019-01-23T17:41:04.097Z,25.23
2019-01-23T17:43:38.297Z,26.50
2019-01-23T17:46:10.225Z,25.72
2019-01-23T17:48:42.148Z,26.82
2019-01-23T17:51:14.078Z,26.48
2019-01-23T17:53:46.035Z,25.30
2019-01-23T17:56:18.151Z,27.15
2019-01-23T17:58:50.125Z,25.90
2019-01-23T18:01:22.071Z,26.90
2019-01-23T18:03:54.431Z,25.65
2019-01-23T18:06:26.294Z,27.02
2019-01-23T18:08:58.182Z,29.40
2019-01-23T18:11:33.226Z,26.02
2019-01-23T18:14:05.196Z,26.77
2019-01-23T18:16:38.164Z,30.65
2019-01-23T18:19:10.032Z,25.85
2019-01-23T18:21:41.961Z,25.60
2019-01-23T18:24:13.907Z,28.02
2019-01-23T18:26:45.778Z,40.50
2019-01-23T18:29:17.718Z,26.50
2019-01-23T18:31:56.111Z,27.20
2019-01-23T18:35:21.789Z,26.50
2019-01-23T18:38:32.064Z,27.48
2019-01-23T18:41:59.777Z,26.75
2019-01-23T18:45:28.247Z,27.20
2019-01-23T18:48:33.544Z,24.90
2019-01-23T18:51:54.060Z,26.25
2019-01-23T18:54:26.199Z,24.87
2019-01-23T18:56:59.952Z,26.97
2019-01-23T18:59:31.826Z,29.50
2019-01-23T19:02:03.670Z,28.60
2019-01-23T19:04:37.938Z,27.98
2019-01-23T19:07:09.806Z,29.67
2019-01-23T19:09:41.679Z,28.55
2019-01-23T19:12:14.904Z,30.82
2019-01-23T19:14:46.821Z,28.42
2019-01-23T19:17:21.558Z,28.62
2019-01-23T19:19:53.427Z,27.60
2019-01-23T19:22:26.435Z,30.55
2019-01-23T19:24:58.285Z,30.70
2019-01-23T19:27:31.847Z,29.02
2019-01-23T19:30:09.153Z,27.85
2019-01-23T19:32:37.391Z,31.05
2019-01-23T19:35:09.730Z,28.90
2019-01-23T19:37:43.239Z,32.00
2019-01-23T19:40:18.445Z,29.87
2019-01-23T19:42:51.399Z,30.05
2019-01-23T19:45:24.622Z,29.85
2019-01-23T19:47:56.598Z,32.38
2019-01-23T19:50:28.469Z,30.75
2019-01-23T19:53:03.659Z,28.87
2019-01-23T19:55:40.943Z,27.98
2019-01-23T19:58:12.816Z,32.20
2019-01-23T20:00:44.812Z,29.35
2019-01-23T20:03:23.853Z,30.62
2019-01-23T20:05:55.716Z,29.27
2019-01-23T20:08:27.631Z,32.10
2019-01-23T20:11:05.529Z,29.42
2019-01-23T20:13:38.598Z,31.02
2019-01-23T20:16:13.580Z,30.23
2019-01-23T20:18:48.438Z,28.62
2019-01-23T20:21:20.346Z,30.57
2019-01-23T20:23:54.295Z,32.60
2019-01-23T20:26:26.160Z,33.13
2019-01-23T20:29:03.074Z,30.57
2019-01-23T20:31:34.959Z,30.00
2019-01-23T20:34:13.172Z,29.35
2019-01-23T20:36:46.486Z,31.82
2019-01-23T20:39:18.377Z,32.42
2019-01-23T20:41:51.792Z,31.02
2019-01-23T20:44:23.688Z,32.45
2019-01-23T20:46:55.549Z,29.50
2019-01-23T20:49:28.791Z,29.30
2019-01-23T20:52:00.741Z,30.55
2019-01-23T20:54:32.619Z,32.30
2019-01-23T20:57:04.462Z,31.17
2019-01-23T20:59:37.516Z,29.63
2019-01-23T21:02:09.657Z,30.90
2019-01-23T21:04:43.469Z,31.02
2019-01-23T21:07:15.358Z,31.70
2019-01-23T21:09:47.224Z,33.65
2019-01-23T21:12:21.879Z,29.95
2019-01-23T21:14:54.872Z,31.00
2019-01-23T21:17:34.439Z,31.07
2019-01-23T21:20:08.717Z,28.77
2019-01-23T21:22:40.516Z,30.55
2019-01-23T21:25:16.169Z,31.00
2019-01-23T21:27:49.040Z,30.52
2019-01-23T21:30:26.697Z,30.50
2019-01-23T21:32:58.607Z,31.52
2019-01-23T21:35:32.078Z,31.23
2019-01-23T21:38:03.905Z,29.90
2019-01-23T21:40:38.769Z,31.55
2019-01-23T21:43:12.702Z,32.33
2019-01-23T21:45:46.946Z,30.65
2019-01-23T21:48:18.950Z,34.43
2019-01-23T21:50:50.883Z,30.62
2019-01-23T21:53:24.545Z,31.70
2019-01-23T21:55:58.499Z,34.70
2019-01-23T21:58:32.640Z,33.08
2019-01-23T22:01:06.326Z,32.17
2019-01-23T22:03:38.213Z,31.68
2019-01-23T22:06:16.080Z,32.48
2019-01-23T22:08:48.607Z,32.05
2019-01-23T22:11:20.471Z,32.35
2019-01-23T22:13:58.596Z,30.60
2019-01-23T22:16:30.459Z,31.93
2019-01-23T22:19:02.341Z,32.40
2019-01-23T22:21:34.205Z,32.93
2019-01-23T22:24:15.193Z,32.65
2019-01-23T22:26:48.149Z,33.40
2019-01-23T22:29:22.804Z,32.55
2019-01-23T22:31:57.643Z,31.20
2019-01-23T22:34:35.451Z,32.53
2019-01-23T22:37:10.138Z,31.90
2019-01-23T22:39:43.650Z,33.02
2019-01-23T22:42:15.473Z,32.55
2019-01-23T22:44:47.323Z,32.05
2019-01-23T22:47:20.275Z,30.95
2019-01-23T22:49:53.564Z,31.95
2019-01-23T22:52:27.653Z,32.00
2019-01-23T22:54:59.627Z,32.63
2019-01-23T22:57:34.504Z,31.30
2019-01-23T23:00:27.389Z,31.97
2019-01-23T23:03:03.596Z,32.25
2019-01-23T23:05:37.067Z,31.48
2019-01-23T23:08:10.745Z,32.23
2019-01-23T23:10:45.358Z,32.65
2019-01-23T23:13:19.951Z,31.65
2019-01-23T23:15:56.307Z,33.53
2019-01-23T23:18:28.155Z,32.78
2019-01-23T23:21:03.565Z,34.38
2019-01-23T23:23:38.148Z,32.88
2019-01-23T23:26:15.071Z,34.13
2019-01-23T23:28:46.922Z,32.63
2019-01-23T23:31:21.682Z,32.48
2019-01-23T23:33:59.782Z,36.20
2019-01-23T23:36:31.279Z,33.42
2019-01-23T23:39:03.215Z,33.73
2019-01-23T23:41:41.701Z,34.63
2019-01-23T23:44:11.575Z,33.70
2019-01-23T23:46:45.789Z,32.93
2019-01-23T23:49:17.623Z,33.08
2019-01-23T23:51:54.259Z,34.38
2019-01-23T23:54:26.112Z,35.40
2019-01-23T23:57:00.602Z,34.25
2019-01-23T23:59:32.465Z,35.73
